Mansehra Weather



Mansehra's Current Weather

Temprature 6.22o clear sky

clear sky

Rain: 0 %

Min Temprature6.22o
Max Temprature6.22o
Humidity67
Wind Speed0.55 m/h
Sun Rise07:10:16
Sun Set17:27:26
Current Time: 23-Jan-2021 18:38:46
Lat/Lon: 34.3333, 73.2




Mansehra's Geo Location



Mansehra's Weather Forecast

Time Overall Temp Min Temp Max Temp Humidity Wind Speed Rain
23-Jan-2021 (Sat)
20:00:00 scattered clouds 7.340 5.640 7.340 63 1.3 m/h 0 %
23:00:00 few clouds 5.330 4.330 5.330 68 2.3 m/h 0 %
24-Jan-2021 (Sun)
02:00:00 clear sky 3.710 3.350 3.710 72 2.51 m/h 0 %
05:00:00 clear sky 2.680 2.630 2.680 73 2.59 m/h 0 %
08:00:00 clear sky 3.520 3.520 3.520 69 2.63 m/h 0 %
11:00:00 clear sky 11.030 11.030 11.030 42 1.32 m/h 0 %
14:00:00 clear sky 13.490 13.490 13.490 35 1.32 m/h 0 %
17:00:00 clear sky 10.380 10.380 10.380 45 1.05 m/h 0 %
20:00:00 clear sky 6.500 6.500 6.500 57 2.31 m/h 0 %
23:00:00 clear sky 4.960 4.960 4.960 63 2.84 m/h 0 %
25-Jan-2021 (Mon)
02:00:00 clear sky 4.040 4.040 4.040 64 2.98 m/h 0 %
05:00:00 clear sky 3.470 3.470 3.470 65 3.09 m/h 0 %
08:00:00 few clouds 4.220 4.220 4.220 62 3.07 m/h 0 %
11:00:00 few clouds 11.940 11.940 11.940 38 1.89 m/h 0 %
14:00:00 clear sky 14.780 14.780 14.780 32 0.8 m/h 0 %
17:00:00 clear sky 11.270 11.270 11.270 43 1.18 m/h 0 %
20:00:00 clear sky 7.120 7.120 7.120 56 2.42 m/h 0 %
23:00:00 clear sky 5.380 5.380 5.380 61 2.93 m/h 0 %
26-Jan-2021 (Tue)
02:00:00 clear sky 4.330 4.330 4.330 62 3.07 m/h 0 %
05:00:00 clear sky 3.660 3.660 3.660 65 3.09 m/h 0 %
08:00:00 clear sky 4.260 4.260 4.260 62 3.05 m/h 0 %
11:00:00 clear sky 11.820 11.820 11.820 38 1.5 m/h 0 %
14:00:00 clear sky 14.520 14.520 14.520 33 0.69 m/h 0 %
17:00:00 few clouds 11.220 11.220 11.220 43 1.19 m/h 0 %
20:00:00 clear sky 6.870 6.870 6.870 56 2.27 m/h 0 %
23:00:00 clear sky 5.010 5.010 5.010 61 2.72 m/h 0 %
27-Jan-2021 (Wed)
02:00:00 clear sky 3.930 3.930 3.930 62 2.92 m/h 0 %
05:00:00 clear sky 3.260 3.260 3.260 64 2.98 m/h 0 %
08:00:00 clear sky 4.040 4.040 4.040 61 2.98 m/h 0 %
11:00:00 clear sky 11.620 11.620 11.620 38 1.44 m/h 0 %
14:00:00 overcast clouds 14.150 14.150 14.150 32 1.15 m/h 0 %
17:00:00 overcast clouds 10.670 10.670 10.670 43 1.38 m/h 0 %
20:00:00 clear sky 6.360 6.360 6.360 56 2.27 m/h 0 %
23:00:00 clear sky 4.780 4.780 4.780 60 2.66 m/h 0 %
28-Jan-2021 (Thu)
02:00:00 clear sky 3.860 3.860 3.860 62 2.73 m/h 0 %
05:00:00 clear sky 3.170 3.170 3.170 64 2.79 m/h 0 %
08:00:00 clear sky 4.060 4.060 4.060 60 2.69 m/h 0 %
11:00:00 clear sky 11.830 11.830 11.830 37 1.22 m/h 0 %
14:00:00 clear sky 14.510 14.510 14.510 31 1.13 m/h 0 %
17:00:00 clear sky 11.130 11.130 11.130 41 1.57 m/h 0 %

Famous Cities (60)